Time;durP1;ratioP1;P1;durP2;ratioP2;P2;SDS_P1;SDS_P2;PMS_P1;PMS_P2;Temp;Humidity;BMP_temperature;BMP_pressure;BME280_temperature;BME280_humidity;BME280_pressure;Samples;Min_cycle;Max_cycle;Signal;HPM_P1;HPM_P2
2022/03/03 00:00:25;;;;;;;6.07;4.03;;;;;;;;;;6266834;22;20008;-29
2022/03/03 00:02:50;;;;;;;5.45;4.20;;;;;;;;;;6266599;22;20482;-30
2022/03/03 00:05:16;;;;;;;5.65;3.67;;;;;;;;;;6266660;22;20436;-27
2022/03/03 00:07:41;;;;;;;4.93;3.67;;;;;;;;;;6266650;22;20008;-30
2022/03/03 00:10:08;;;;;;;5.40;3.83;;;;;;;;;;6266661;22;20350;-28
2022/03/03 00:12:33;;;;;;;4.03;3.50;;;;;;;;;;6266245;22;20004;-28
2022/03/03 00:14:59;;;;;;;5.45;3.50;;;;;;;;;;6266730;22;20015;-29
2022/03/03 00:17:24;;;;;;;4.03;3.22;;;;;;;;;;6266840;22;20019;-28
2022/03/03 00:19:50;;;;;;;3.95;3.38;;;;;;;;;;6266150;22;20675;-28
2022/03/03 00:22:15;;;;;;;5.28;3.95;;;;;;;;;;6267022;22;20027;-28
2022/03/03 00:24:41;;;;;;;5.38;4.10;;;;;;;;;;6266228;22;20034;-29
2022/03/03 00:27:07;;;;;;;5.43;3.92;;;;;;;;;;6266298;22;20003;-28
2022/03/03 00:29:32;;;;;;;5.05;3.60;;;;;;;;;;6238496;22;20015;-28
2022/03/03 00:31:58;;;;;;;4.72;3.45;;;;;;;;;;6266665;22;20007;-28
2022/03/03 00:34:23;;;;;;;4.72;3.70;;;;;;;;;;6266573;22;20014;-28
2022/03/03 00:36:49;;;;;;;3.78;3.22;;;;;;;;;;6266775;22;20018;-28
2022/03/03 00:39:14;;;;;;;6.47;3.58;;;;;;;;;;6266532;22;20008;-29
2022/03/03 00:41:39;;;;;;;4.25;3.58;;;;;;;;;;6266353;22;20458;-28
2022/03/03 00:44:06;;;;;;;4.63;3.35;;;;;;;;;;6266211;22;20069;-28
2022/03/03 00:46:33;;;;;;;3.40;3.10;;;;;;;;;;6266461;22;20014;-28
2022/03/03 00:48:58;;;;;;;4.50;3.05;;;;;;;;;;6266164;22;20008;-29
2022/03/03 00:51:24;;;;;;;4.07;3.13;;;;;;;;;;6266567;22;20539;-28
2022/03/03 00:53:50;;;;;;;3.63;3.20;;;;;;;;;;6265591;22;20007;-28
2022/03/03 00:56:18;;;;;;;3.40;3.00;;;;;;;;;;6266211;22;20003;-28
2022/03/03 00:58:44;;;;;;;3.45;3.15;;;;;;;;;;6239161;22;20015;-29
2022/03/03 01:01:10;;;;;;;3.72;3.30;;;;;;;;;;6266102;22;20000;-29
2022/03/03 01:03:35;;;;;;;4.60;3.28;;;;;;;;;;6266012;22;20073;-29
2022/03/03 01:06:01;;;;;;;3.25;2.78;;;;;;;;;;6266260;22;20072;-29
2022/03/03 01:08:27;;;;;;;3.22;2.92;;;;;;;;;;6265951;22;20577;-29
2022/03/03 01:10:52;;;;;;;3.40;2.53;;;;;;;;;;6266000;22;20004;-29
2022/03/03 01:13:18;;;;;;;3.95;3.00;;;;;;;;;;6265805;22;20035;-28
2022/03/03 01:15:44;;;;;;;3.17;2.83;;;;;;;;;;6266196;22;20003;-29
2022/03/03 01:18:09;;;;;;;2.92;2.63;;;;;;;;;;6265514;22;20026;-29
2022/03/03 01:20:34;;;;;;;4.25;3.15;;;;;;;;;;6266111;22;20008;-28
2022/03/03 01:23:00;;;;;;;3.78;2.72;;;;;;;;;;6265894;22;20011;-29
2022/03/03 01:25:25;;;;;;;3.40;2.65;;;;;;;;;;6266253;22;20011;-28
2022/03/03 01:27:51;;;;;;;2.38;2.15;;;;;;;;;;6265680;22;20441;-29
2022/03/03 01:30:16;;;;;;;3.30;2.30;;;;;;;;;;6266394;22;20330;-29
2022/03/03 01:32:42;;;;;;;3.17;2.70;;;;;;;;;;6265816;22;20452;-29
2022/03/03 01:35:07;;;;;;;3.13;2.50;;;;;;;;;;6265611;22;20466;-29
2022/03/03 01:37:33;;;;;;;2.80;2.45;;;;;;;;;;6265920;22;20447;-29
2022/03/03 01:39:59;;;;;;;3.22;2.60;;;;;;;;;;6265478;22;20006;-29
2022/03/03 01:42:24;;;;;;;3.10;2.40;;;;;;;;;;6266090;22;20061;-29
2022/03/03 01:44:49;;;;;;;2.75;2.17;;;;;;;;;;6265516;22;20061;-29
2022/03/03 01:47:19;;;;;;;3.20;2.35;;;;;;;;;;6266384;22;20316;-28
2022/03/03 01:49:45;;;;;;;3.00;2.53;;;;;;;;;;6265778;22;20087;-29
2022/03/03 01:52:11;;;;;;;2.72;2.40;;;;;;;;;;6266129;22;20007;-29
2022/03/03 01:54:36;;;;;;;2.75;2.40;;;;;;;;;;6238452;22;20003;-29
2022/03/03 01:57:02;;;;;;;2.80;2.40;;;;;;;;;;6265852;22;20507;-29
2022/03/03 01:59:27;;;;;;;3.08;2.20;;;;;;;;;;6265336;22;20049;-29
2022/03/03 02:01:53;;;;;;;3.47;2.63;;;;;;;;;;6265466;22;20015;-28
2022/03/03 02:04:18;;;;;;;2.60;2.40;;;;;;;;;;6265989;22;20082;-28
2022/03/03 02:06:44;;;;;;;3.13;2.40;;;;;;;;;;6266517;22;20019;-28
2022/03/03 02:09:09;;;;;;;3.15;2.30;;;;;;;;;;6265468;22;20431;-28
2022/03/03 02:11:35;;;;;;;3.30;2.40;;;;;;;;;;6265381;22;20664;-28
2022/03/03 02:14:04;;;;;;;3.13;2.55;;;;;;;;;;6264896;22;20014;-29
2022/03/03 02:16:29;;;;;;;2.53;2.00;;;;;;;;;;6265975;22;20038;-29
2022/03/03 02:18:55;;;;;;;2.67;2.40;;;;;;;;;;6264507;22;20546;-28
2022/03/03 02:21:20;;;;;;;2.72;2.25;;;;;;;;;;6265826;22;20011;-29
2022/03/03 02:23:45;;;;;;;3.00;2.15;;;;;;;;;;6264932;22;20027;-30
2022/03/03 02:26:22;;;;;;;3.38;2.20;;;;;;;;;;6265675;22;19999;-30
2022/03/03 02:28:49;;;;;;;2.42;2.17;;;;;;;;;;6264967;22;20024;-28
2022/03/03 02:31:14;;;;;;;2.88;2.13;;;;;;;;;;6265768;22;20011;-29
2022/03/03 02:33:40;;;;;;;2.40;2.20;;;;;;;;;;6264935;22;20014;-29
2022/03/03 02:36:27;;;;;;;2.60;2.35;;;;;;;;;;6264774;22;20078;-29
2022/03/03 02:38:54;;;;;;;2.33;2.13;;;;;;;;;;6264771;22;20022;-28
2022/03/03 02:41:19;;;;;;;2.33;2.13;;;;;;;;;;6265663;22;20007;-28
2022/03/03 02:43:45;;;;;;;2.42;2.15;;;;;;;;;;6265301;22;20088;-29
2022/03/03 02:46:11;;;;;;;2.25;2.05;;;;;;;;;;6264954;22;20060;-28
2022/03/03 02:48:36;;;;;;;2.70;2.50;;;;;;;;;;6265302;22;20003;-29
2022/03/03 02:51:02;;;;;;;3.42;2.58;;;;;;;;;;6264328;22;20392;-29
2022/03/03 02:53:27;;;;;;;2.50;2.30;;;;;;;;;;6265010;22;20007;-29
2022/03/03 02:55:53;;;;;;;3.10;2.30;;;;;;;;;;6265352;22;20004;-29
2022/03/03 02:58:18;;;;;;;2.40;2.20;;;;;;;;;;6264947;22;20149;-29
2022/03/03 03:00:44;;;;;;;2.95;2.40;;;;;;;;;;6265205;22;20475;-29
2022/03/03 03:03:10;;;;;;;2.55;2.30;;;;;;;;;;6264537;22;20474;-28
2022/03/03 03:05:36;;;;;;;2.33;2.10;;;;;;;;;;6265273;22;20000;-29
2022/03/03 03:08:01;;;;;;;2.15;1.90;;;;;;;;;;6264790;22;20015;-29
2022/03/03 03:10:27;;;;;;;2.65;2.20;;;;;;;;;;6264804;22;20008;-29
2022/03/03 03:12:52;;;;;;;2.80;2.50;;;;;;;;;;6264740;22;20008;-29
2022/03/03 03:15:18;;;;;;;2.67;2.42;;;;;;;;;;6264879;22;20004;-29
2022/03/03 03:17:43;;;;;;;2.95;2.30;;;;;;;;;;6264922;22;20008;-29
2022/03/03 03:20:09;;;;;;;2.60;2.22;;;;;;;;;;6237120;22;20008;-29
2022/03/03 03:22:35;;;;;;;3.78;2.42;;;;;;;;;;6264255;22;21034;-29
2022/03/03 03:25:02;;;;;;;2.40;2.20;;;;;;;;;;6264450;22;20031;-29
2022/03/03 03:27:27;;;;;;;2.63;2.22;;;;;;;;;;6264629;22;20014;-28
2022/03/03 03:29:52;;;;;;;2.30;2.05;;;;;;;;;;6264890;22;20000;-29
2022/03/03 03:32:21;;;;;;;2.10;1.90;;;;;;;;;;6265286;22;20081;-28
2022/03/03 03:34:46;;;;;;;2.17;1.90;;;;;;;;;;6266274;22;20004;-29
2022/03/03 03:37:12;;;;;;;2.42;2.20;;;;;;;;;;6266854;22;20085;-29
2022/03/03 03:39:37;;;;;;;2.50;1.88;;;;;;;;;;6239312;22;20008;-29
2022/03/03 03:42:03;;;;;;;2.28;1.90;;;;;;;;;;6267396;22;20008;-29
2022/03/03 03:44:28;;;;;;;2.47;1.88;;;;;;;;;;6267010;22;20359;-28
2022/03/03 03:46:54;;;;;;;2.17;1.90;;;;;;;;;;6267091;22;20012;-29
2022/03/03 03:49:19;;;;;;;2.50;2.15;;;;;;;;;;6266705;22;20171;-29
2022/03/03 03:51:45;;;;;;;3.40;2.08;;;;;;;;;;6267177;22;20000;-29
2022/03/03 03:54:10;;;;;;;2.20;2.00;;;;;;;;;;6266294;22;20007;-29
2022/03/03 03:56:35;;;;;;;2.67;2.30;;;;;;;;;;6267169;22;20003;-29
2022/03/03 03:59:01;;;;;;;2.20;2.00;;;;;;;;;;6266366;22;20003;-28
2022/03/03 04:01:27;;;;;;;1.75;1.45;;;;;;;;;;6266456;22;20060;-28
2022/03/03 04:03:53;;;;;;;2.50;2.10;;;;;;;;;;6266314;22;20351;-28
2022/03/03 04:06:19;;;;;;;2.45;2.08;;;;;;;;;;6266763;22;20039;-29
2022/03/03 04:08:44;;;;;;;1.80;1.63;;;;;;;;;;6266645;22;20007;-29
2022/03/03 04:11:12;;;;;;;1.85;1.67;;;;;;;;;;6267150;22;20267;-29
2022/03/03 04:13:38;;;;;;;2.10;1.90;;;;;;;;;;6266005;22;20698;-29
2022/03/03 04:16:04;;;;;;;2.03;1.85;;;;;;;;;;6266838;22;20007;-27
2022/03/03 04:18:29;;;;;;;2.28;1.88;;;;;;;;;;6266002;22;20447;-29
2022/03/03 04:20:55;;;;;;;2.42;1.90;;;;;;;;;;6266693;22;20015;-28
2022/03/03 04:23:20;;;;;;;2.35;2.05;;;;;;;;;;6266090;22;20061;-29
2022/03/03 04:25:45;;;;;;;2.17;1.92;;;;;;;;;;6266972;22;20101;-29
2022/03/03 04:28:11;;;;;;;2.45;1.92;;;;;;;;;;6266588;22;20018;-29
2022/03/03 04:30:36;;;;;;;2.28;1.90;;;;;;;;;;6266662;22;20200;-29
2022/03/03 04:33:02;;;;;;;2.00;1.80;;;;;;;;;;6266493;22;20014;-29
2022/03/03 04:35:28;;;;;;;2.33;2.00;;;;;;;;;;6266538;22;20000;-28
2022/03/03 04:37:54;;;;;;;2.00;1.80;;;;;;;;;;6265761;22;20000;-29
2022/03/03 04:40:19;;;;;;;2.10;1.90;;;;;;;;;;6266944;22;20058;-29
2022/03/03 04:42:45;;;;;;;2.72;2.20;;;;;;;;;;6266598;22;20705;-28
2022/03/03 04:45:10;;;;;;;2.55;1.80;;;;;;;;;;6264898;22;20000;-28
2022/03/03 04:47:36;;;;;;;2.20;2.00;;;;;;;;;;6266061;22;20006;-28
2022/03/03 04:50:02;;;;;;;2.45;1.80;;;;;;;;;;6266074;22;20000;-29
2022/03/03 04:52:27;;;;;;;2.03;1.63;;;;;;;;;;6266134;22;20035;-29
2022/03/03 04:54:53;;;;;;;2.28;1.83;;;;;;;;;;6265920;22;20080;-29
2022/03/03 04:57:18;;;;;;;3.90;2.33;;;;;;;;;;6239426;22;20004;-29
2022/03/03 04:59:43;;;;;;;4.15;1.75;;;;;;;;;;6263150;22;20018;-29
2022/03/03 05:02:09;;;;;;;2.42;2.20;;;;;;;;;;6261950;22;20659;-29
2022/03/03 05:04:34;;;;;;;2.88;2.10;;;;;;;;;;6261645;22;20434;-30
2022/03/03 05:07:00;;;;;;;3.42;1.67;;;;;;;;;;6263249;22;20083;-30
2022/03/03 05:09:25;;;;;;;1.98;1.73;;;;;;;;;;6263995;22;20364;-29
2022/03/03 05:14:17;;;;;;;7.38;2.63;;;;;;;;;;6263486;22;20022;-42
2022/03/03 05:16:44;;;;;;;4.68;3.35;;;;;;;;;;6262136;22;20007;-33
2022/03/03 05:19:09;;;;;;;4.45;3.20;;;;;;;;;;6262858;22;20083;-39
2022/03/03 05:21:35;;;;;;;5.65;2.70;;;;;;;;;;6262423;22;20007;-38
2022/03/03 05:24:00;;;;;;;6.72;2.47;;;;;;;;;;6262016;22;20019;-40
2022/03/03 05:26:26;;;;;;;6.88;2.60;;;;;;;;;;6260984;22;20006;-40
2022/03/03 05:28:51;;;;;;;3.30;2.25;;;;;;;;;;6262166;22;20000;-40
2022/03/03 05:31:17;;;;;;;4.93;2.28;;;;;;;;;;6261802;22;20030;-40
2022/03/03 05:33:43;;;;;;;2.63;2.20;;;;;;;;;;6261304;22;20356;-39
2022/03/03 05:36:33;;;;;;;7.07;2.15;;;;;;;;;;6259556;22;20016;-40
2022/03/03 05:41:34;;;;;;;3.72;1.98;;;;;;;;;;6265371;22;20030;-37
2022/03/03 05:43:59;;;;;;;2.17;1.77;;;;;;;;;;6261257;22;20012;-38
2022/03/03 05:46:25;;;;;;;4.40;1.92;;;;;;;;;;6264353;22;20173;-37
2022/03/03 05:48:50;;;;;;;4.55;1.88;;;;;;;;;;6211934;22;20015;-41
2022/03/03 05:51:19;;;;;;;3.78;2.35;;;;;;;;;;6262994;22;20007;-39
2022/03/03 05:53:45;;;;;;;3.22;2.13;;;;;;;;;;6263716;22;20008;-40
2022/03/03 06:07:29;;;;;;;2.72;1.67;;;;;;;;;;6260994;22;20094;-41
2022/03/03 06:09:55;;;;;;;2.13;1.90;;;;;;;;;;6235155;22;20020;-40
2022/03/03 06:12:26;;;;;;;2.60;2.22;;;;;;;;;;6263653;22;20003;-41
2022/03/03 06:14:53;;;;;;;3.17;2.20;;;;;;;;;;6264682;22;20085;-36
2022/03/03 06:17:22;;;;;;;3.58;2.30;;;;;;;;;;6262587;22;20012;-38
2022/03/03 06:19:49;;;;;;;2.75;1.88;;;;;;;;;;6258976;22;20133;-29
2022/03/03 06:22:15;;;;;;;2.33;1.80;;;;;;;;;;6264361;22;20003;-29
2022/03/03 06:27:25;;;;;;;3.38;2.00;;;;;;;;;;6266778;22;20031;-39
2022/03/03 06:29:50;;;;;;;2.80;2.03;;;;;;;;;;6264355;22;20007;-37
2022/03/03 06:32:15;;;;;;;2.05;1.85;;;;;;;;;;6210426;22;20467;-38
2022/03/03 06:34:41;;;;;;;3.67;2.65;;;;;;;;;;6262728;22;20003;-40
2022/03/03 06:37:06;;;;;;;2.47;2.10;;;;;;;;;;6262872;22;19995;-38
2022/03/03 06:39:32;;;;;;;2.97;2.03;;;;;;;;;;6262239;22;20008;-39
2022/03/03 06:44:33;;;;;;;2.28;2.08;;;;;;;;;;6261989;22;20023;-80
2022/03/03 06:52:16;;;;;;;2.30;1.95;;;;;;;;;;6262835;22;20104;-40
2022/03/03 06:57:17;;;;;;;6.85;2.60;;;;;;;;;;6270540;22;20024;-39
2022/03/03 06:59:43;;;;;;;5.15;2.10;;;;;;;;;;6233440;22;20007;-41
2022/03/03 07:02:08;;;;;;;3.30;2.15;;;;;;;;;;6235444;22;20008;-40
2022/03/03 07:04:34;;;;;;;3.42;2.20;;;;;;;;;;6262354;22;20019;-41
2022/03/03 07:07:00;;;;;;;3.33;2.10;;;;;;;;;;6261506;22;20003;-38
2022/03/03 07:09:26;;;;;;;5.88;2.30;;;;;;;;;;6260508;22;20007;-40
2022/03/03 07:11:51;;;;;;;3.05;2.13;;;;;;;;;;6262339;22;20008;-40
2022/03/03 07:14:17;;;;;;;4.25;2.35;;;;;;;;;;6261503;22;20031;-37
2022/03/03 07:16:52;;;;;;;2.35;1.90;;;;;;;;;;6261993;22;20003;-40
2022/03/03 07:19:39;;;;;;;8.50;1.98;;;;;;;;;;6262670;22;20082;-39
2022/03/03 07:22:23;;;;;;;3.40;2.40;;;;;;;;;;6262448;22;20011;-39
2022/03/03 07:24:58;;;;;;;2.72;2.00;;;;;;;;;;6262277;22;20007;-40
2022/03/03 07:27:24;;;;;;;3.60;2.15;;;;;;;;;;6262257;22;20061;-43
2022/03/03 07:29:57;;;;;;;2.58;2.28;;;;;;;;;;6262400;22;20037;-39
2022/03/03 07:32:36;;;;;;;3.03;2.72;;;;;;;;;;6262409;22;20091;-40
2022/03/03 07:35:12;;;;;;;6.80;2.80;;;;;;;;;;6237353;22;20011;-41
2022/03/03 07:37:45;;;;;;;4.22;3.05;;;;;;;;;;6262572;22;20100;-37
2022/03/03 07:40:10;;;;;;;8.07;3.05;;;;;;;;;;6262903;22;20030;-35
2022/03/03 07:42:36;;;;;;;6.22;3.30;;;;;;;;;;6261155;22;20007;-37
2022/03/03 07:45:03;;;;;;;5.57;2.78;;;;;;;;;;6234733;22;20007;-40
2022/03/03 07:47:29;;;;;;;6.63;3.20;;;;;;;;;;6261463;22;20007;-37
2022/03/03 07:49:55;;;;;;;8.55;3.35;;;;;;;;;;6262262;22;20011;-41
2022/03/03 07:52:21;;;;;;;5.88;3.20;;;;;;;;;;6234232;22;20126;-37
2022/03/03 07:54:46;;;;;;;5.88;2.83;;;;;;;;;;6261553;22;20470;-40
2022/03/03 07:57:14;;;;;;;3.97;2.42;;;;;;;;;;6261273;22;20020;-40
2022/03/03 07:59:40;;;;;;;8.15;2.88;;;;;;;;;;6235157;22;20003;-42
2022/03/03 08:02:06;;;;;;;12.32;2.85;;;;;;;;;;6261846;22;20008;-41
2022/03/03 08:04:32;;;;;;;3.55;2.67;;;;;;;;;;6261508;22;20007;-39
2022/03/03 08:07:08;;;;;;;4.93;2.85;;;;;;;;;;6259701;22;20118;-35
2022/03/03 08:09:34;;;;;;;7.00;3.30;;;;;;;;;;6261648;22;20008;-39
2022/03/03 08:12:02;;;;;;;9.80;3.47;;;;;;;;;;6260757;22;20106;-35
2022/03/03 08:14:29;;;;;;;7.30;3.65;;;;;;;;;;6234676;22;20371;-34
2022/03/03 08:16:54;;;;;;;7.78;4.57;;;;;;;;;;6233686;22;20008;-38
2022/03/03 08:19:19;;;;;;;8.55;4.80;;;;;;;;;;6261648;22;20830;-35
2022/03/03 08:21:45;;;;;;;8.95;5.22;;;;;;;;;;6263275;22;20010;-38
2022/03/03 08:24:13;;;;;;;7.60;5.40;;;;;;;;;;6261556;22;20003;-35
2022/03/03 08:26:39;;;;;;;7.95;5.50;;;;;;;;;;6262161;22;20003;-38
2022/03/03 08:29:05;;;;;;;10.30;6.65;;;;;;;;;;6261034;22;20003;-38
2022/03/03 08:31:49;;;;;;;10.93;6.88;;;;;;;;;;6263230;22;20000;-40
2022/03/03 08:34:34;;;;;;;10.98;6.60;;;;;;;;;;6237331;22;20069;-36
2022/03/03 08:37:00;;;;;;;12.07;6.18;;;;;;;;;;6236481;22;20004;-40
2022/03/03 08:39:29;;;;;;;11.48;6.68;;;;;;;;;;6236575;22;20011;-35
2022/03/03 08:41:56;;;;;;;10.52;6.00;;;;;;;;;;6236772;22;20008;-36
2022/03/03 08:44:21;;;;;;;15.63;6.28;;;;;;;;;;6262980;22;20483;-38
2022/03/03 08:46:47;;;;;;;12.55;5.93;;;;;;;;;;6263102;22;20006;-41
2022/03/03 08:49:13;;;;;;;11.88;5.63;;;;;;;;;;6263016;22;20010;-36
2022/03/03 08:51:38;;;;;;;11.73;5.57;;;;;;;;;;6263563;22;20007;-37
2022/03/03 08:54:04;;;;;;;10.90;5.40;;;;;;;;;;6262047;22;20073;-40
2022/03/03 08:56:29;;;;;;;11.68;5.57;;;;;;;;;;6262140;22;20011;-34
2022/03/03 08:58:55;;;;;;;10.18;5.68;;;;;;;;;;6262842;22;20008;-41
2022/03/03 09:01:20;;;;;;;8.55;5.45;;;;;;;;;;6262475;22;20003;-41
2022/03/03 09:03:46;;;;;;;11.85;6.68;;;;;;;;;;6262288;22;20004;-41
2022/03/03 09:06:15;;;;;;;9.73;5.40;;;;;;;;;;6263297;22;20014;-38
2022/03/03 09:08:40;;;;;;;9.65;6.22;;;;;;;;;;6260867;22;20421;-39
2022/03/03 09:11:06;;;;;;;8.70;5.63;;;;;;;;;;6263275;22;20556;-41
2022/03/03 09:13:32;;;;;;;13.80;5.60;;;;;;;;;;6263018;22;20007;-39
2022/03/03 09:15:58;;;;;;;11.88;5.85;;;;;;;;;;6261460;22;20415;-41
2022/03/03 09:18:23;;;;;;;12.50;5.65;;;;;;;;;;6235124;22;20018;-41
2022/03/03 09:20:49;;;;;;;9.40;5.97;;;;;;;;;;6262606;22;20014;-39
2022/03/03 09:23:14;;;;;;;9.73;5.50;;;;;;;;;;6262459;22;20081;-37
2022/03/03 09:25:41;;;;;;;10.40;5.53;;;;;;;;;;6262263;22;20436;-38
2022/03/03 09:28:06;;;;;;;13.65;6.03;;;;;;;;;;6262191;22;20313;-38
2022/03/03 09:30:32;;;;;;;11.73;5.95;;;;;;;;;;6262490;22;20062;-39
2022/03/03 09:32:57;;;;;;;18.52;5.95;;;;;;;;;;6262716;22;20011;-40
2022/03/03 09:35:23;;;;;;;10.20;5.53;;;;;;;;;;6263553;22;20008;-41
2022/03/03 09:37:48;;;;;;;11.75;6.05;;;;;;;;;;6263119;22;20219;-39
2022/03/03 09:40:14;;;;;;;10.27;5.35;;;;;;;;;;6263659;22;20534;-41
2022/03/03 09:42:39;;;;;;;15.65;5.50;;;;;;;;;;6262856;22;20007;-39
2022/03/03 09:45:07;;;;;;;16.45;5.65;;;;;;;;;;6263151;22;20459;-30
2022/03/03 09:47:36;;;;;;;16.92;5.85;;;;;;;;;;6262911;22;20049;-40
2022/03/03 09:50:01;;;;;;;10.18;5.40;;;;;;;;;;6262318;22;20093;-31
2022/03/03 09:52:28;;;;;;;10.88;5.97;;;;;;;;;;6262728;22;20011;-40
2022/03/03 09:54:57;;;;;;;14.10;5.45;;;;;;;;;;6262579;22;20035;-38
2022/03/03 09:57:24;;;;;;;11.57;5.22;;;;;;;;;;6259336;22;20022;-36
2022/03/03 09:59:52;;;;;;;13.30;5.15;;;;;;;;;;6262675;22;20075;-40
2022/03/03 10:02:18;;;;;;;12.63;4.95;;;;;;;;;;6261525;22;20004;-39
2022/03/03 10:04:43;;;;;;;12.13;5.13;;;;;;;;;;6262636;22;20059;-39
2022/03/03 10:07:09;;;;;;;20.67;6.00;;;;;;;;;;6234900;22;20007;-39
2022/03/03 10:09:59;;;;;;;12.20;4.97;;;;;;;;;;6262302;22;20064;-37
2022/03/03 10:12:24;;;;;;;18.95;5.55;;;;;;;;;;6262294;22;20364;-39
2022/03/03 10:14:50;;;;;;;11.00;5.93;;;;;;;;;;6262385;22;20003;-40
2022/03/03 10:17:16;;;;;;;18.38;5.20;;;;;;;;;;6262289;22;20419;-37
2022/03/03 10:19:57;;;;;;;14.52;5.57;;;;;;;;;;6262560;22;20004;-38
2022/03/03 10:22:42;;;;;;;12.88;5.60;;;;;;;;;;6262977;22;20007;-39
2022/03/03 10:25:08;;;;;;;16.15;10.15;;;;;;;;;;6262289;22;20446;-37
2022/03/03 10:27:34;;;;;;;12.77;8.63;;;;;;;;;;6262865;22;20008;-41
2022/03/03 10:30:01;;;;;;;15.40;8.65;;;;;;;;;;6261951;22;20061;-36
2022/03/03 10:32:26;;;;;;;18.77;10.07;;;;;;;;;;6262488;22;20475;-41
2022/03/03 10:34:53;;;;;;;14.43;9.00;;;;;;;;;;6261653;22;20033;-37
2022/03/03 10:37:23;;;;;;;15.80;9.20;;;;;;;;;;6263094;22;20004;-38
2022/03/03 10:39:54;;;;;;;15.65;8.82;;;;;;;;;;6262429;22;20014;-39
2022/03/03 10:42:21;;;;;;;19.80;9.63;;;;;;;;;;6262601;22;20019;-36
2022/03/03 10:44:48;;;;;;;19.70;9.60;;;;;;;;;;6262157;22;20015;-39
2022/03/03 10:47:24;;;;;;;19.92;10.85;;;;;;;;;;6262426;22;20082;-38
2022/03/03 10:49:52;;;;;;;15.18;9.48;;;;;;;;;;6262370;22;20482;-39
2022/03/03 10:52:25;;;;;;;19.27;9.98;;;;;;;;;;6262443;22;20011;-38
2022/03/03 10:54:54;;;;;;;19.00;9.48;;;;;;;;;;6261871;22;20050;-39
2022/03/03 10:57:28;;;;;;;17.95;10.15;;;;;;;;;;6261267;22;20039;-39
2022/03/03 10:59:55;;;;;;;16.38;8.80;;;;;;;;;;6262418;22;20279;-36
2022/03/03 11:02:21;;;;;;;16.00;9.35;;;;;;;;;;6209897;22;20526;-39
2022/03/03 11:04:46;;;;;;;21.05;9.40;;;;;;;;;;6261848;22;20003;-38
2022/03/03 11:07:14;;;;;;;36.50;9.25;;;;;;;;;;6263411;22;20000;-38
2022/03/03 11:09:39;;;;;;;14.52;9.43;;;;;;;;;;6236993;22;20003;-40
2022/03/03 11:12:06;;;;;;;15.35;8.23;;;;;;;;;;6236893;22;20011;-39
2022/03/03 11:14:31;;;;;;;14.48;7.70;;;;;;;;;;6264012;22;20102;-37
2022/03/03 11:16:58;;;;;;;15.73;8.82;;;;;;;;;;6236861;22;20042;-41
2022/03/03 11:19:23;;;;;;;10.60;8.18;;;;;;;;;;6263438;22;20042;-39
2022/03/03 11:21:49;;;;;;;16.50;8.60;;;;;;;;;;6264025;22;20007;-39
2022/03/03 11:24:17;;;;;;;14.20;7.90;;;;;;;;;;6264601;22;20004;-39
2022/03/03 11:26:44;;;;;;;12.52;8.13;;;;;;;;;;6263700;22;20084;-37
2022/03/03 11:29:10;;;;;;;15.23;8.48;;;;;;;;;;6264591;22;20004;-35
2022/03/03 11:31:37;;;;;;;11.75;8.13;;;;;;;;;;6264587;22;20495;-36
2022/03/03 11:34:26;;;;;;;10.82;7.38;;;;;;;;;;6264208;22;20474;-39
2022/03/03 11:37:18;;;;;;;11.23;7.50;;;;;;;;;;6264559;22;19999;-38
2022/03/03 11:39:53;;;;;;;12.35;8.23;;;;;;;;;;6264670;22;20396;-34
2022/03/03 11:42:21;;;;;;;11.18;7.57;;;;;;;;;;6264658;22;20007;-41
2022/03/03 11:44:47;;;;;;;10.55;7.82;;;;;;;;;;6263967;22;20008;-38
2022/03/03 11:47:23;;;;;;;10.90;7.28;;;;;;;;;;6264914;22;20025;-41
2022/03/03 11:50:12;;;;;;;12.52;7.40;;;;;;;;;;6264073;22;20015;-32
2022/03/03 11:52:38;;;;;;;9.27;7.13;;;;;;;;;;6263985;22;20012;-38
2022/03/03 11:55:26;;;;;;;10.13;7.07;;;;;;;;;;6265232;22;20008;-31
2022/03/03 11:57:53;;;;;;;9.82;7.22;;;;;;;;;;6266417;22;20518;-37
2022/03/03 12:00:19;;;;;;;8.85;6.72;;;;;;;;;;6239837;22;20007;-35
2022/03/03 12:03:15;;;;;;;11.07;7.18;;;;;;;;;;6266152;22;20368;-29
2022/03/03 12:05:46;;;;;;;9.13;6.60;;;;;;;;;;6234130;22;20035;-32
2022/03/03 12:08:12;;;;;;;11.07;7.07;;;;;;;;;;6266274;22;20008;-37
2022/03/03 12:10:38;;;;;;;8.95;7.18;;;;;;;;;;6266168;22;20015;-39
2022/03/03 12:13:29;;;;;;;10.02;7.22;;;;;;;;;;6266320;22;20014;-35
2022/03/03 12:16:14;;;;;;;8.63;6.43;;;;;;;;;;6266099;22;20026;-36
2022/03/03 12:18:40;;;;;;;8.25;5.97;;;;;;;;;;6266037;22;20646;-33
2022/03/03 12:21:27;;;;;;;8.10;6.28;;;;;;;;;;6265139;22;20004;-37
2022/03/03 12:24:14;;;;;;;8.15;5.97;;;;;;;;;;6266102;22;20035;-36
2022/03/03 12:26:55;;;;;;;8.00;6.35;;;;;;;;;;6265831;22;20056;-32
2022/03/03 12:29:35;;;;;;;9.68;6.07;;;;;;;;;;6266592;22;20004;-31
2022/03/03 12:32:26;;;;;;;8.75;6.20;;;;;;;;;;6265967;22;20604;-37
2022/03/03 12:34:52;;;;;;;8.48;5.78;;;;;;;;;;6265636;22;20030;-35
2022/03/03 12:37:18;;;;;;;7.80;5.43;;;;;;;;;;6266676;22;20010;-40
2022/03/03 12:39:50;;;;;;;5.40;4.78;;;;;;;;;;6238950;22;20003;-40
2022/03/03 12:42:24;;;;;;;7.75;5.75;;;;;;;;;;6266041;22;20008;-35
2022/03/03 12:44:56;;;;;;;7.50;5.55;;;;;;;;;;6266125;22;20007;-32
2022/03/03 12:47:37;;;;;;;8.48;5.25;;;;;;;;;;6265786;22;20430;-35
2022/03/03 12:50:06;;;;;;;6.95;5.38;;;;;;;;;;6265831;22;20004;-38
2022/03/03 12:52:33;;;;;;;7.63;5.50;;;;;;;;;;6265715;22;20008;-39
2022/03/03 12:54:59;;;;;;;7.88;5.88;;;;;;;;;;6265347;22;20057;-30
2022/03/03 12:57:31;;;;;;;8.15;5.63;;;;;;;;;;6266111;22;20020;-34
2022/03/03 12:59:57;;;;;;;;;;;;;;;;;;6266376;22;20090;-39
2022/03/03 13:02:23;;;;;;;6.63;5.40;;;;;;;;;;6238903;22;20431;-38
2022/03/03 13:04:48;;;;;;;7.07;5.57;;;;;;;;;;6265694;22;20011;-38
2022/03/03 13:07:14;;;;;;;8.40;5.25;;;;;;;;;;6238062;22;20004;-40
2022/03/03 13:09:55;;;;;;;6.80;4.82;;;;;;;;;;6265621;22;20010;-35
2022/03/03 13:12:21;;;;;;;6.78;5.05;;;;;;;;;;6266023;22;20003;-33
2022/03/03 13:15:05;;;;;;;6.05;4.95;;;;;;;;;;6265724;22;20072;-32
2022/03/03 13:17:30;;;;;;;6.00;4.72;;;;;;;;;;6266246;22;20003;-37
2022/03/03 13:19:57;;;;;;;7.45;5.07;;;;;;;;;;6238572;22;20359;-36
2022/03/03 13:22:23;;;;;;;6.72;5.47;;;;;;;;;;6265992;22;20018;-31
2022/03/03 13:24:48;;;;;;;6.10;5.10;;;;;;;;;;6238554;22;20008;-38
2022/03/03 13:27:14;;;;;;;5.35;4.28;;;;;;;;;;6265966;22;19999;-36
2022/03/03 13:29:39;;;;;;;4.95;4.38;;;;;;;;;;6238372;22;20010;-38
2022/03/03 13:32:12;;;;;;;5.93;4.70;;;;;;;;;;6265885;22;20004;-33
2022/03/03 13:34:39;;;;;;;5.40;4.85;;;;;;;;;;6265287;22;20007;-39
2022/03/03 13:37:16;;;;;;;5.63;4.60;;;;;;;;;;6265988;22;20030;-40
2022/03/03 13:39:41;;;;;;;5.53;4.43;;;;;;;;;;6265392;22;20115;-39
2022/03/03 13:42:10;;;;;;;5.90;4.65;;;;;;;;;;6265908;22;20086;-36
2022/03/03 13:44:36;;;;;;;4.95;4.10;;;;;;;;;;6265559;22;20003;-40
2022/03/03 13:47:03;;;;;;;6.57;4.47;;;;;;;;;;6265589;22;19996;-34
2022/03/03 13:49:29;;;;;;;5.47;4.65;;;;;;;;;;6265481;22;20114;-38
2022/03/03 13:52:15;;;;;;;5.53;4.40;;;;;;;;;;6265034;22;20011;-33
2022/03/03 13:54:43;;;;;;;4.88;4.10;;;;;;;;;;6264544;22;20035;-40
2022/03/03 13:57:09;;;;;;;5.80;4.35;;;;;;;;;;6265708;22;20015;-40
2022/03/03 13:59:53;;;;;;;5.85;4.50;;;;;;;;;;6238201;22;20018;-37
2022/03/03 14:02:18;;;;;;;4.63;4.10;;;;;;;;;;6265606;22;20010;-38
2022/03/03 14:05:06;;;;;;;7.20;4.30;;;;;;;;;;6265099;22;20008;-36
2022/03/03 14:07:33;;;;;;;5.63;4.05;;;;;;;;;;6265921;22;20000;-38
2022/03/03 14:10:00;;;;;;;4.93;3.97;;;;;;;;;;6265628;22;20050;-39
2022/03/03 14:12:26;;;;;;;4.68;4.00;;;;;;;;;;6238418;22;20484;-34
2022/03/03 14:14:51;;;;;;;5.43;4.28;;;;;;;;;;6237774;22;20008;-40
2022/03/03 14:17:17;;;;;;;5.15;4.43;;;;;;;;;;6264991;22;20004;-38
2022/03/03 14:19:43;;;;;;;5.30;4.40;;;;;;;;;;6264936;22;20090;-38
2022/03/03 14:22:09;;;;;;;5.15;4.35;;;;;;;;;;6265219;22;20090;-35
2022/03/03 14:24:36;;;;;;;5.45;4.78;;;;;;;;;;6265270;22;20156;-39
2022/03/03 14:27:02;;;;;;;5.90;3.95;;;;;;;;;;6264909;22;20003;-40
2022/03/03 14:29:28;;;;;;;4.85;3.97;;;;;;;;;;6265242;22;20078;-34
2022/03/03 14:31:54;;;;;;;4.18;3.78;;;;;;;;;;6264923;22;20089;-36
2022/03/03 14:34:20;;;;;;;4.85;4.20;;;;;;;;;;6264951;22;20008;-36
2022/03/03 14:36:46;;;;;;;6.15;4.55;;;;;;;;;;6264915;22;20000;-39
2022/03/03 14:39:11;;;;;;;5.53;4.53;;;;;;;;;;6264952;22;19996;-35
2022/03/03 14:41:37;;;;;;;5.35;4.50;;;;;;;;;;6265063;22;20000;-39
2022/03/03 14:44:02;;;;;;;4.82;4.35;;;;;;;;;;6265006;22;20367;-36
2022/03/03 14:46:30;;;;;;;4.38;3.83;;;;;;;;;;6264930;22;20340;-38
2022/03/03 14:48:55;;;;;;;4.18;3.75;;;;;;;;;;6264688;22;20336;-40
2022/03/03 14:51:20;;;;;;;6.00;4.00;;;;;;;;;;6265167;22;20101;-38
2022/03/03 14:53:47;;;;;;;4.55;4.13;;;;;;;;;;6212262;22;20006;-37
2022/03/03 14:56:14;;;;;;;5.40;4.15;;;;;;;;;;6265214;22;20026;-36
2022/03/03 14:58:39;;;;;;;4.25;3.60;;;;;;;;;;6264421;22;20034;-34
2022/03/03 15:01:05;;;;;;;4.28;3.80;;;;;;;;;;6264926;22;20007;-34
2022/03/03 15:03:30;;;;;;;4.28;3.88;;;;;;;;;;6237604;22;20321;-38
2022/03/03 15:05:55;;;;;;;4.22;3.80;;;;;;;;;;6264827;22;20010;-37
2022/03/03 15:08:21;;;;;;;4.18;3.50;;;;;;;;;;6264965;22;20022;-37
2022/03/03 15:10:47;;;;;;;5.00;4.15;;;;;;;;;;6264129;22;20431;-38
2022/03/03 15:13:12;;;;;;;4.88;4.18;;;;;;;;;;6264889;22;20034;-39